createdAt,value
2023-03-07T00:00:46.617Z,11.55
2023-03-07T00:03:15.138Z,10.93
2023-03-07T00:05:41.968Z,10.10
2023-03-07T00:08:08.847Z,12.38
2023-03-07T00:10:35.560Z,10.90
2023-03-07T00:13:02.414Z,13.48
2023-03-07T00:15:28.967Z,12.27
2023-03-07T00:17:55.455Z,14.25
2023-03-07T00:20:22.299Z,14.63
2023-03-07T00:22:48.959Z,10.55
2023-03-07T00:25:15.517Z,12.25
2023-03-07T00:27:42.009Z,11.68
2023-03-07T00:30:09.475Z,10.20
2023-03-07T00:32:36.054Z,11.48
2023-03-07T00:35:02.561Z,10.90
2023-03-07T00:37:29.107Z,10.30
2023-03-07T00:39:55.565Z,15.60
2023-03-07T00:42:22.081Z,10.60
2023-03-07T00:44:48.581Z,10.85
2023-03-07T00:47:15.123Z,11.02
2023-03-07T00:49:41.673Z,8.82
2023-03-07T00:52:08.199Z,12.18
2023-03-07T00:54:34.829Z,9.85
2023-03-07T00:57:01.339Z,12.07
2023-03-07T00:59:27.862Z,8.23
2023-03-07T01:01:54.331Z,12.52
2023-03-07T01:04:20.914Z,7.70
2023-03-07T01:06:47.462Z,12.02
2023-03-07T01:09:13.994Z,8.80
2023-03-07T01:11:40.522Z,8.85
2023-03-07T01:14:07.187Z,8.55
2023-03-07T01:16:36.446Z,10.82
2023-03-07T01:19:06.698Z,9.43
2023-03-07T01:24:01.225Z,6.97
2023-03-07T01:26:30.266Z,7.55
2023-03-07T01:28:59.503Z,7.88
2023-03-07T01:31:26.923Z,6.78
2023-03-07T01:33:54.293Z,10.07
2023-03-07T01:36:31.544Z,9.98
2023-03-07T01:39:03.799Z,7.82
2023-03-07T01:41:30.635Z,10.93
2023-03-07T01:43:57.347Z,9.73
2023-03-07T01:46:40.346Z,11.48
2023-03-07T01:49:21.274Z,10.63
2023-03-07T01:51:52.192Z,12.15
2023-03-07T01:54:20.499Z,10.68
2023-03-07T01:56:47.529Z,15.55
2023-03-07T01:59:21.310Z,10.60
2023-03-07T02:01:49.644Z,10.52
2023-03-07T02:04:31.004Z,10.90
2023-03-07T02:06:58.894Z,11.77
2023-03-07T02:09:25.823Z,15.65
2023-03-07T02:11:52.549Z,10.27
2023-03-07T02:14:19.131Z,9.00
2023-03-07T02:16:45.967Z,11.43
2023-03-07T02:19:51.881Z,13.07
2023-03-07T02:22:19.360Z,8.93
2023-03-07T02:24:50.917Z,7.97
2023-03-07T02:27:17.462Z,12.13
2023-03-07T02:29:44.056Z,8.30
2023-03-07T02:32:10.874Z,8.57
2023-03-07T02:34:37.422Z,9.77
2023-03-07T02:37:29.943Z,7.90
2023-03-07T02:39:58.786Z,10.10
2023-03-07T02:42:31.626Z,11.35
2023-03-07T02:45:01.151Z,10.73
2023-03-07T02:47:27.999Z,14.30
2023-03-07T02:49:54.538Z,9.57
2023-03-07T02:52:21.933Z,8.30
2023-03-07T02:54:48.730Z,11.38
2023-03-07T02:57:15.577Z,13.32
2023-03-07T02:59:42.097Z,7.95
2023-03-07T03:02:08.678Z,9.95
2023-03-07T03:04:35.196Z,12.52
2023-03-07T03:07:01.750Z,12.80
2023-03-07T03:09:28.223Z,10.45
2023-03-07T03:11:54.722Z,9.65
2023-03-07T03:14:21.189Z,13.32
2023-03-07T03:16:47.709Z,9.50
2023-03-07T03:19:14.231Z,10.27
2023-03-07T03:21:41.158Z,12.27
2023-03-07T03:24:08.653Z,8.25
2023-03-07T03:26:36.622Z,11.73
2023-03-07T03:29:04.449Z,12.27
2023-03-07T03:31:32.340Z,8.60
2023-03-07T03:33:59.482Z,15.15
2023-03-07T03:36:27.408Z,11.00
2023-03-07T03:38:58.491Z,10.07
2023-03-07T03:41:26.006Z,11.07
2023-03-07T03:43:52.773Z,13.93
2023-03-07T03:46:19.284Z,14.02
2023-03-07T03:48:55.267Z,15.07
2023-03-07T03:51:23.541Z,12.25
2023-03-07T03:53:50.528Z,16.05
2023-03-07T03:56:19.522Z,11.57
2023-03-07T03:58:54.874Z,14.90
2023-03-07T04:01:24.021Z,12.80
2023-03-07T04:03:51.736Z,13.88
2023-03-07T04:06:21.631Z,16.38
2023-03-07T04:08:48.912Z,15.00
2023-03-07T04:11:15.778Z,12.55
2023-03-07T04:13:42.591Z,13.55
2023-03-07T04:16:09.274Z,18.10
2023-03-07T04:18:36.421Z,15.98
2023-03-07T04:21:03.364Z,13.07
2023-03-07T04:23:29.854Z,14.50
2023-03-07T04:25:58.565Z,13.75
2023-03-07T04:28:28.376Z,12.50
2023-03-07T04:30:55.392Z,14.20
2023-03-07T04:33:22.599Z,14.38
2023-03-07T04:35:49.130Z,12.55
2023-03-07T04:38:16.026Z,8.43
2023-03-07T04:40:42.517Z,9.60
2023-03-07T04:43:09.018Z,8.23
2023-03-07T04:45:36.410Z,9.80
2023-03-07T04:48:03.045Z,10.98
2023-03-07T04:50:29.543Z,12.43
2023-03-07T04:52:56.083Z,9.43
2023-03-07T04:55:22.574Z,9.73
2023-03-07T04:57:51.559Z,9.00
2023-03-07T05:00:19.483Z,12.90
2023-03-07T05:02:45.965Z,10.65
2023-03-07T05:05:12.607Z,8.32
2023-03-07T05:07:39.130Z,10.88
2023-03-07T05:10:06.321Z,9.65
2023-03-07T05:12:32.825Z,12.43
2023-03-07T05:14:59.286Z,13.30
2023-03-07T05:17:25.778Z,13.40
2023-03-07T05:19:52.265Z,9.93
2023-03-07T05:22:18.776Z,12.40
2023-03-07T05:24:45.306Z,13.30
2023-03-07T05:27:12.092Z,12.65
2023-03-07T05:29:38.620Z,11.43
2023-03-07T05:32:05.631Z,15.50
2023-03-07T05:34:32.156Z,16.30
2023-03-07T05:36:58.679Z,13.90
2023-03-07T05:39:25.376Z,12.65
2023-03-07T05:41:51.847Z,17.00
2023-03-07T05:44:19.505Z,10.75
2023-03-07T05:46:46.068Z,13.57
2023-03-07T05:49:12.582Z,10.85
2023-03-07T05:51:39.104Z,12.48
2023-03-07T05:54:05.695Z,15.18
2023-03-07T05:56:32.517Z,13.80
2023-03-07T05:58:58.988Z,15.35
2023-03-07T06:01:25.518Z,11.98
2023-03-07T06:03:51.999Z,14.07
2023-03-07T06:06:18.564Z,12.57
2023-03-07T06:08:45.075Z,10.10
2023-03-07T06:11:11.559Z,13.38
2023-03-07T06:13:38.102Z,16.50
2023-03-07T06:16:04.754Z,11.15
2023-03-07T06:18:31.325Z,13.48
2023-03-07T06:20:59.971Z,13.50
2023-03-07T06:23:27.674Z,13.07
2023-03-07T06:25:54.276Z,12.43
2023-03-07T06:28:21.044Z,11.20
2023-03-07T06:30:47.754Z,13.90
2023-03-07T06:33:14.828Z,12.27
2023-03-07T06:35:43.034Z,12.20
2023-03-07T06:38:13.875Z,10.00
2023-03-07T06:40:40.859Z,8.20
2023-03-07T06:43:07.762Z,14.18
2023-03-07T06:45:34.465Z,15.45
2023-03-07T06:48:00.956Z,8.73
2023-03-07T06:50:35.114Z,12.25
2023-03-07T06:53:02.274Z,14.13
2023-03-07T06:55:28.892Z,12.32
2023-03-07T06:57:55.425Z,13.27
2023-03-07T07:00:22.067Z,13.38
2023-03-07T07:02:49.110Z,11.48
2023-03-07T07:05:15.722Z,9.02
2023-03-07T07:07:42.271Z,13.30
2023-03-07T07:10:09.560Z,11.95
2023-03-07T07:12:36.104Z,12.52
2023-03-07T07:15:03.175Z,10.10
2023-03-07T07:17:29.765Z,12.23
2023-03-07T07:19:56.298Z,9.60
2023-03-07T07:22:23.038Z,10.35
2023-03-07T07:24:49.995Z,9.60
2023-03-07T07:27:16.513Z,14.80
2023-03-07T07:29:43.060Z,10.63
2023-03-07T07:32:09.914Z,9.82
2023-03-07T07:34:36.523Z,8.27
2023-03-07T07:37:03.213Z,8.30
2023-03-07T07:39:29.876Z,9.95
2023-03-07T07:41:56.509Z,10.77
2023-03-07T07:44:23.231Z,13.15
2023-03-07T07:46:49.791Z,9.00
2023-03-07T07:49:18.530Z,7.97
2023-03-07T07:51:45.187Z,6.68
2023-03-07T07:54:11.702Z,11.23
2023-03-07T07:56:38.204Z,9.98
2023-03-07T07:59:04.767Z,9.73
2023-03-07T08:01:31.262Z,11.45
2023-03-07T08:03:57.740Z,6.32
2023-03-07T08:06:27.634Z,8.90
2023-03-07T08:08:54.692Z,11.30
2023-03-07T08:11:22.608Z,9.50
2023-03-07T08:13:49.372Z,9.30
2023-03-07T08:16:18.562Z,9.43
2023-03-07T08:18:50.760Z,9.32
2023-03-07T08:21:17.587Z,10.52
2023-03-07T08:23:44.084Z,10.18
2023-03-07T08:26:11.030Z,11.88
2023-03-07T08:28:37.820Z,10.88
2023-03-07T08:31:13.362Z,9.15
2023-03-07T08:33:40.074Z,6.85
2023-03-07T08:36:07.124Z,6.10
2023-03-07T08:38:33.982Z,11.02
2023-03-07T08:41:05.338Z,9.57
2023-03-07T08:43:34.106Z,11.02
2023-03-07T08:46:00.829Z,9.35
2023-03-07T08:48:27.414Z,8.10
2023-03-07T08:50:55.218Z,9.05
2023-03-07T08:53:22.428Z,9.25
2023-03-07T08:55:49.671Z,10.30
2023-03-07T08:58:16.191Z,11.32
2023-03-07T09:00:42.771Z,13.23
2023-03-07T09:03:09.301Z,9.13
2023-03-07T09:05:38.823Z,7.25
2023-03-07T09:08:07.414Z,10.68
2023-03-07T09:10:34.995Z,8.75
2023-03-07T09:13:01.596Z,9.55
2023-03-07T09:15:28.101Z,12.27
2023-03-07T09:17:54.726Z,13.68
2023-03-07T09:20:21.252Z,8.43
2023-03-07T09:22:47.871Z,9.57
2023-03-07T09:25:14.664Z,10.52
2023-03-07T09:27:41.187Z,15.25
2023-03-07T09:30:08.442Z,9.75
2023-03-07T09:32:35.142Z,9.73
2023-03-07T09:35:01.834Z,11.00
2023-03-07T09:37:28.320Z,13.00
2023-03-07T09:39:54.812Z,14.40
2023-03-07T09:42:36.722Z,10.80
2023-03-07T09:45:38.973Z,12.27
2023-03-07T09:48:36.149Z,8.82
2023-03-07T09:51:41.773Z,11.38
2023-03-07T09:54:14.000Z,10.57
2023-03-07T09:56:54.607Z,9.38
2023-03-07T09:59:24.324Z,11.68
2023-03-07T10:02:32.518Z,9.55
2023-03-07T10:05:23.144Z,8.68
2023-03-07T10:07:49.896Z,12.40
2023-03-07T10:10:26.823Z,8.63
2023-03-07T10:13:02.600Z,11.73
2023-03-07T10:15:48.022Z,9.95
2023-03-07T10:18:39.219Z,10.05
2023-03-07T10:21:14.437Z,9.13
2023-03-07T10:24:09.239Z,10.07
2023-03-07T10:26:47.006Z,12.75
2023-03-07T10:29:24.621Z,12.50
2023-03-07T10:31:55.928Z,12.68
2023-03-07T10:34:31.296Z,5.78
2023-03-07T10:37:09.977Z,12.55
2023-03-07T10:39:54.649Z,9.77
2023-03-07T10:42:23.839Z,12.40
2023-03-07T10:44:51.601Z,11.30
2023-03-07T10:47:27.562Z,11.02
2023-03-07T10:50:23.358Z,11.40
2023-03-07T10:52:53.983Z,11.45
2023-03-07T10:55:41.714Z,16.20
2023-03-07T10:58:27.179Z,14.18
2023-03-07T11:00:59.236Z,8.13
2023-03-07T11:03:55.976Z,13.65
2023-03-07T11:06:33.886Z,11.80
2023-03-07T11:09:15.520Z,14.45
2023-03-07T11:11:54.480Z,13.90
2023-03-07T11:14:21.415Z,11.18
2023-03-07T11:16:50.836Z,13.73
2023-03-07T11:19:42.996Z,19.13
2023-03-07T11:22:30.981Z,13.43
2023-03-07T11:27:45.453Z,12.32
2023-03-07T11:30:22.588Z,12.88
2023-03-07T11:32:58.712Z,12.30
2023-03-07T11:38:20.808Z,7.65
2023-03-07T11:41:10.182Z,14.07
2023-03-07T11:43:45.743Z,10.20
2023-03-07T11:46:44.829Z,12.77
2023-03-07T11:49:34.503Z,11.63
2023-03-07T11:52:20.193Z,9.80
2023-03-07T11:55:08.850Z,9.93
2023-03-07T11:58:00.196Z,12.27
2023-03-07T12:00:58.200Z,8.05
2023-03-07T12:03:49.189Z,9.00
2023-03-07T12:06:18.779Z,10.88
2023-03-07T12:09:09.119Z,9.27
2023-03-07T12:12:03.757Z,10.68
2023-03-07T12:14:54.538Z,10.45
2023-03-07T12:17:43.411Z,10.00
2023-03-07T12:20:31.669Z,10.48
2023-03-07T12:23:17.034Z,10.68
2023-03-07T12:25:48.827Z,11.40
2023-03-07T12:28:15.324Z,10.20
2023-03-07T12:31:00.564Z,8.43
2023-03-07T12:33:49.032Z,10.43
2023-03-07T12:36:25.359Z,7.18
2023-03-07T12:39:01.675Z,11.40
2023-03-07T12:41:58.288Z,10.75
2023-03-07T12:45:00.931Z,14.02
2023-03-07T12:47:50.175Z,6.63
2023-03-07T12:50:54.150Z,7.93
2023-03-07T12:53:39.597Z,10.15
2023-03-07T12:56:18.433Z,8.40
2023-03-07T12:59:01.054Z,9.88
2023-03-07T13:01:46.874Z,11.98
2023-03-07T13:04:15.908Z,8.07
2023-03-07T13:06:44.446Z,7.07
2023-03-07T13:09:26.440Z,11.90
2023-03-07T13:12:14.668Z,13.27
2023-03-07T13:14:43.559Z,14.82
2023-03-07T13:17:31.039Z,10.55
2023-03-07T13:20:11.150Z,11.63
2023-03-07T13:22:40.635Z,11.88
2023-03-07T13:25:27.329Z,14.60
2023-03-07T13:27:59.326Z,9.38
2023-03-07T13:30:27.752Z,7.25
2023-03-07T13:32:55.334Z,7.03
2023-03-07T13:35:27.938Z,8.07
2023-03-07T13:38:00.212Z,8.35
2023-03-07T13:40:35.918Z,9.52
2023-03-07T13:43:27.831Z,7.45
2023-03-07T13:45:59.448Z,6.40
2023-03-07T13:48:31.513Z,8.93
2023-03-07T13:51:00.764Z,7.10
2023-03-07T13:53:33.205Z,8.20
2023-03-07T13:56:15.117Z,7.57
2023-03-07T13:59:19.230Z,7.30
2023-03-07T14:02:08.532Z,7.90
2023-03-07T14:04:48.394Z,9.43
2023-03-07T14:07:36.526Z,12.80
2023-03-07T14:13:10.568Z,9.60
2023-03-07T14:15:46.846Z,9.07
2023-03-07T14:20:52.293Z,5.65
2023-03-07T14:23:59.403Z,7.80
2023-03-07T14:26:55.376Z,6.15
2023-03-07T14:29:24.560Z,8.00
2023-03-07T14:31:53.586Z,5.63
2023-03-07T14:34:35.515Z,7.10
2023-03-07T14:37:13.754Z,8.15
2023-03-07T14:40:09.325Z,5.47
2023-03-07T14:42:51.996Z,7.32
2023-03-07T14:45:24.546Z,7.35
2023-03-07T14:48:19.662Z,10.05
2023-03-07T14:50:46.814Z,7.88
2023-03-07T14:53:24.598Z,5.22
2023-03-07T14:55:53.659Z,6.95
2023-03-07T14:58:26.947Z,7.80
2023-03-07T15:01:00.617Z,8.95
2023-03-07T15:03:28.386Z,8.35
2023-03-07T15:06:00.684Z,9.77
2023-03-07T15:08:31.505Z,9.88
2023-03-07T15:11:33.118Z,10.85
2023-03-07T15:14:08.653Z,21.80
2023-03-07T15:16:45.157Z,12.10
2023-03-07T15:19:17.648Z,12.07
2023-03-07T15:21:47.299Z,10.43
2023-03-07T15:24:30.720Z,10.10
2023-03-07T15:26:57.380Z,10.40
2023-03-07T15:29:26.336Z,10.35
2023-03-07T15:32:00.728Z,15.88
2023-03-07T15:34:29.993Z,8.52
2023-03-07T15:37:20.094Z,11.80
2023-03-07T15:39:56.067Z,10.55
2023-03-07T15:42:22.806Z,12.38
2023-03-07T15:45:00.671Z,22.40
2023-03-07T15:47:30.540Z,22.13
2023-03-07T15:50:00.697Z,9.77
2023-03-07T15:52:34.860Z,8.25
2023-03-07T15:55:22.779Z,8.30
2023-03-07T15:58:01.378Z,9.45
2023-03-07T16:00:34.108Z,10.93
2023-03-07T16:03:25.391Z,9.52
2023-03-07T16:05:53.016Z,11.73
2023-03-07T16:08:20.161Z,11.38
2023-03-07T16:11:04.539Z,12.52
2023-03-07T16:13:36.168Z,14.05
2023-03-07T16:16:07.752Z,11.90
2023-03-07T16:18:34.573Z,11.32
2023-03-07T16:21:01.069Z,12.68
2023-03-07T16:23:27.591Z,12.82
2023-03-07T16:25:54.471Z,11.95
2023-03-07T16:28:21.003Z,13.93
2023-03-07T16:30:47.530Z,18.30
2023-03-07T16:33:14.327Z,12.88
2023-03-07T16:35:41.280Z,13.35
2023-03-07T16:38:08.510Z,14.45
2023-03-07T16:40:39.954Z,12.10
2023-03-07T16:43:20.515Z,11.82
2023-03-07T16:45:47.086Z,13.02
2023-03-07T16:48:16.322Z,15.07
2023-03-07T16:50:42.816Z,12.70
2023-03-07T16:53:09.319Z,16.17
2023-03-07T16:55:38.096Z,18.75
2023-03-07T16:58:05.693Z,15.75
2023-03-07T17:00:32.351Z,17.17
2023-03-07T17:03:00.855Z,18.17
2023-03-07T17:05:28.638Z,12.95
2023-03-07T17:07:56.710Z,12.05
2023-03-07T17:10:24.885Z,10.93
2023-03-07T17:12:51.390Z,15.38
2023-03-07T17:15:21.193Z,13.60
2023-03-07T17:17:48.272Z,13.35
2023-03-07T17:20:18.088Z,13.38
2023-03-07T17:22:44.606Z,14.93
2023-03-07T17:25:11.250Z,14.45
2023-03-07T17:27:42.003Z,15.38
2023-03-07T17:30:12.508Z,15.77
2023-03-07T17:32:39.123Z,14.13
2023-03-07T17:35:06.326Z,12.43
2023-03-07T17:37:32.868Z,12.73
2023-03-07T17:39:59.417Z,15.18
2023-03-07T17:42:25.990Z,10.55
2023-03-07T17:44:52.470Z,10.73
2023-03-07T17:47:18.989Z,14.52
2023-03-07T17:49:46.857Z,10.82
2023-03-07T17:52:13.455Z,14.65
2023-03-07T17:54:40.059Z,17.95
2023-03-07T17:57:06.656Z,14.73
2023-03-07T17:59:33.254Z,16.25
2023-03-07T18:02:00.278Z,16.00
2023-03-07T18:04:27.005Z,16.98
2023-03-07T18:06:53.570Z,16.63
2023-03-07T18:09:20.108Z,16.60
2023-03-07T18:11:46.809Z,16.42
2023-03-07T18:14:13.319Z,14.38
2023-03-07T18:16:39.877Z,15.25
2023-03-07T18:19:08.334Z,13.82
2023-03-07T18:21:41.444Z,13.93
2023-03-07T18:24:31.680Z,9.63
2023-03-07T18:27:00.847Z,10.43
2023-03-07T18:29:28.188Z,11.38
2023-03-07T18:31:55.140Z,8.52
2023-03-07T18:34:22.205Z,10.68
2023-03-07T18:36:48.861Z,7.90
2023-03-07T18:39:15.341Z,8.50
2023-03-07T18:41:41.867Z,10.15
2023-03-07T18:44:09.106Z,5.18
2023-03-07T18:46:35.878Z,9.35
2023-03-07T18:49:02.852Z,7.65
2023-03-07T18:51:30.143Z,8.70
2023-03-07T18:53:59.375Z,9.80
2023-03-07T18:56:26.522Z,11.48
2023-03-07T18:58:54.508Z,7.95
2023-03-07T19:01:27.293Z,8.55
2023-03-07T19:03:55.643Z,8.02
2023-03-07T19:06:24.416Z,10.05
2023-03-07T19:08:51.394Z,12.15
2023-03-07T19:11:20.999Z,9.98
2023-03-07T19:13:47.806Z,9.32
2023-03-07T19:16:20.326Z,7.35
2023-03-07T19:18:47.368Z,7.60
2023-03-07T19:21:17.476Z,8.50
2023-03-07T19:23:44.250Z,12.60
2023-03-07T19:26:13.077Z,9.93
2023-03-07T19:28:40.686Z,9.20
2023-03-07T19:31:21.083Z,8.60
2023-03-07T19:33:49.533Z,10.88
2023-03-07T19:36:24.629Z,9.25
2023-03-07T19:38:56.727Z,8.48
2023-03-07T19:41:26.319Z,8.18
2023-03-07T19:43:54.827Z,10.05
2023-03-07T19:46:21.970Z,10.35
2023-03-07T19:48:48.891Z,11.38
2023-03-07T19:51:21.253Z,11.82
2023-03-07T19:53:48.743Z,12.73
2023-03-07T19:56:19.899Z,8.90
2023-03-07T19:58:46.763Z,13.20
2023-03-07T20:01:15.941Z,9.30
2023-03-07T20:03:42.891Z,10.02
2023-03-07T20:06:15.418Z,10.27
2023-03-07T20:08:44.349Z,9.68
2023-03-07T20:11:13.878Z,10.00
2023-03-07T20:13:42.015Z,12.55
2023-03-07T20:16:12.286Z,11.05
2023-03-07T20:21:09.219Z,9.45
2023-03-07T20:23:39.985Z,7.18
2023-03-07T20:26:11.144Z,10.15
2023-03-07T20:28:41.833Z,8.82
2023-03-07T20:31:12.402Z,9.50
2023-03-07T20:33:41.426Z,10.88
2023-03-07T20:36:13.724Z,10.07
2023-03-07T20:38:40.254Z,10.45
2023-03-07T20:41:10.070Z,20.35
2023-03-07T20:43:36.734Z,5.90
2023-03-07T20:46:10.844Z,9.80
2023-03-07T20:48:39.852Z,8.82
2023-03-07T20:51:11.749Z,7.40
2023-03-07T20:53:38.471Z,7.88
2023-03-07T20:56:05.951Z,5.32
2023-03-07T20:58:33.140Z,7.88
2023-03-07T21:01:00.357Z,6.45
2023-03-07T21:03:27.068Z,7.63
2023-03-07T21:05:58.701Z,7.75
2023-03-07T21:08:26.271Z,10.50
2023-03-07T21:11:04.648Z,5.63
2023-03-07T21:13:32.753Z,6.03
2023-03-07T21:16:01.478Z,6.90
2023-03-07T21:18:30.677Z,6.88
2023-03-07T21:21:04.336Z,7.68
2023-03-07T21:23:30.935Z,6.53
2023-03-07T21:26:09.233Z,4.72
2023-03-07T21:28:36.139Z,6.78
2023-03-07T21:31:08.749Z,5.45
2023-03-07T21:33:35.811Z,5.60
2023-03-07T21:36:04.156Z,5.38
2023-03-07T21:38:31.776Z,5.35
2023-03-07T21:41:00.503Z,4.82
2023-03-07T21:43:27.624Z,5.00
2023-03-07T21:45:54.739Z,5.88
2023-03-07T21:48:24.683Z,4.78
2023-03-07T21:50:52.080Z,6.78
2023-03-07T21:53:19.078Z,6.55
2023-03-07T21:55:53.447Z,7.70
2023-03-07T21:58:21.318Z,5.95
2023-03-07T22:00:48.785Z,5.07
2023-03-07T22:03:15.569Z,5.47
2023-03-07T22:05:42.360Z,5.85
2023-03-07T22:08:09.397Z,4.80
2023-03-07T22:10:36.123Z,6.15
2023-03-07T22:13:04.154Z,7.55
2023-03-07T22:15:32.427Z,6.78
2023-03-07T22:17:59.052Z,6.28
2023-03-07T22:20:25.948Z,6.10
2023-03-07T22:22:53.851Z,5.35
2023-03-07T22:25:20.488Z,7.10
2023-03-07T22:27:47.071Z,5.80
2023-03-07T22:30:13.894Z,6.28
2023-03-07T22:32:43.349Z,4.47
2023-03-07T22:35:10.118Z,6.35
2023-03-07T22:37:36.668Z,6.85
2023-03-07T22:40:03.364Z,4.95
2023-03-07T22:42:29.940Z,4.20
2023-03-07T22:44:56.419Z,5.30
2023-03-07T22:47:22.988Z,4.70
2023-03-07T22:49:49.484Z,3.63
2023-03-07T22:52:15.949Z,3.15
2023-03-07T22:54:42.469Z,5.15
2023-03-07T22:57:09.182Z,5.97
2023-03-07T22:59:35.769Z,6.13
2023-03-07T23:02:02.285Z,5.93
2023-03-07T23:04:28.820Z,4.28
2023-03-07T23:06:55.484Z,4.93
2023-03-07T23:09:22.106Z,7.78
2023-03-07T23:11:48.618Z,5.25
2023-03-07T23:14:15.338Z,4.40
2023-03-07T23:16:41.906Z,5.68
2023-03-07T23:19:08.895Z,5.82
2023-03-07T23:21:35.477Z,5.55
2023-03-07T23:24:02.999Z,4.88
2023-03-07T23:26:32.197Z,4.50
2023-03-07T23:28:59.236Z,6.38
2023-03-07T23:31:29.644Z,5.70
2023-03-07T23:33:58.598Z,9.10
2023-03-07T23:36:26.902Z,5.70
2023-03-07T23:38:53.383Z,6.68
2023-03-07T23:41:19.916Z,1.90
2023-03-07T23:43:46.470Z,6.35
2023-03-07T23:46:13.052Z,6.10
2023-03-07T23:48:39.580Z,7.53
2023-03-07T23:51:06.121Z,7.28
2023-03-07T23:53:32.636Z,6.07
2023-03-07T23:55:59.162Z,5.53
2023-03-07T23:58:25.667Z,5.97
